Time;durP1;ratioP1;P1;durP2;ratioP2;P2;SDS_P1;SDS_P2;PMS_P1;PMS_P2;Temp;Humidity;BMP_temperature;BMP_pressure;BME280_temperature;BME280_humidity;BME280_pressure;Samples;Min_cycle;Max_cycle;Signal;HPM_P1;HPM_P2
2021/08/02 00:00:01;;;;;;;11.05;5.82;;;17.60;99.90;;;;;;5019372;28;20050;-79
2021/08/02 00:03:04;;;;;;;7.82;5.47;;;17.60;99.90;;;;;;5005378;28;20038;-78
2021/08/02 00:09:05;;;;;;;;;;;17.60;99.90;;;;;;5016867;28;20033;-82
2021/08/02 00:12:45;;;;;;;6.75;5.13;;;17.60;99.90;;;;;;5017066;28;19901;-79
2021/08/02 00:16:07;;;;;;;8.02;5.35;;;17.50;99.90;;;;;;5018619;28;20046;-79
2021/08/02 00:21:57;;;;;;;6.82;5.63;;;17.50;99.90;;;;;;5017471;28;20093;-80
2021/08/02 00:24:25;;;;;;;9.27;5.40;;;17.50;99.90;;;;;;4989521;28;20030;-78
2021/08/02 00:26:56;;;;;;;8.95;5.00;;;17.50;99.90;;;;;;5002118;28;20085;-76
2021/08/02 00:29:22;;;;;;;8.32;5.07;;;17.50;99.90;;;;;;5014877;28;20065;-77
2021/08/02 00:35:16;;;;;;;6.65;5.38;;;17.50;99.90;;;;;;5015633;28;20069;-78
2021/08/02 00:37:55;;;;;;;5.88;4.57;;;17.50;99.90;;;;;;5015223;28;20026;-77
2021/08/02 00:41:28;;;;;;;9.45;5.45;;;17.40;99.90;;;;;;5033875;28;20065;-79
2021/08/02 00:44:31;;;;;;;6.68;4.78;;;17.40;99.90;;;;;;5012272;28;20042;-78
2021/08/02 00:47:27;;;;;;;9.02;5.40;;;17.40;99.90;;;;;;4993258;28;20029;-78
2021/08/02 00:50:02;;;;;;;6.00;5.03;;;17.40;99.90;;;;;;4983798;28;20031;-79
2021/08/02 00:52:31;;;;;;;8.05;5.20;;;17.30;99.90;;;;;;5002842;28;20049;-78
2021/08/02 00:55:01;;;;;;;7.13;4.70;;;17.30;99.90;;;;;;5003748;28;20565;-76
2021/08/02 00:57:30;;;;;;;8.50;5.30;;;17.30;99.90;;;;;;5020046;28;20025;-78
2021/08/02 01:00:04;;;;;;;8.13;4.65;;;17.20;99.90;;;;;;5002639;28;20076;-79
2021/08/02 01:02:36;;;;;;;8.85;4.95;;;17.20;99.90;;;;;;5002142;28;20097;-78
2021/08/02 01:05:07;;;;;;;11.25;5.63;;;17.20;99.90;;;;;;5003510;28;20045;-78
2021/08/02 01:07:37;;;;;;;9.23;5.45;;;17.20;99.90;;;;;;5003700;28;20117;-77
2021/08/02 01:10:03;;;;;;;8.13;5.32;;;17.20;99.90;;;;;;5002889;28;20033;-79
2021/08/02 01:12:33;;;;;;;8.65;5.90;;;17.20;99.90;;;;;;5002753;28;20382;-79
2021/08/02 01:15:00;;;;;;;7.15;5.32;;;17.20;99.90;;;;;;5020604;28;20061;-78
2021/08/02 01:17:28;;;;;;;7.38;5.95;;;17.10;99.90;;;;;;5003109;28;20499;-77
2021/08/02 01:19:54;;;;;;;16.17;6.53;;;17.10;99.90;;;;;;5001946;28;20046;-78
2021/08/02 01:22:29;;;;;;;6.82;5.22;;;17.00;99.90;;;;;;5020016;28;20022;-78
2021/08/02 01:24:55;;;;;;;12.77;5.88;;;17.00;99.90;;;;;;5019099;28;20025;-78
2021/08/02 01:27:46;;;;;;;6.15;4.97;;;16.90;99.90;;;;;;5003887;28;20033;-78
2021/08/02 01:30:22;;;;;;;7.60;6.15;;;16.90;99.90;;;;;;5025147;28;20030;-78
2021/08/02 01:32:49;;;;;;;8.95;4.80;;;16.90;99.90;;;;;;5024917;28;20026;-77
2021/08/02 01:35:15;;;;;;;8.13;4.70;;;16.90;99.90;;;;;;5005555;28;20030;-79
2021/08/02 01:37:42;;;;;;;7.13;5.32;;;16.90;99.90;;;;;;5007477;28;20129;-78
2021/08/02 01:40:08;;;;;;;8.13;4.72;;;16.90;99.90;;;;;;5007436;28;20022;-77
2021/08/02 01:42:37;;;;;;;6.53;4.72;;;16.90;99.90;;;;;;5024921;28;20084;-79
2021/08/02 01:45:04;;;;;;;11.30;4.13;;;16.90;99.90;;;;;;5025284;28;20479;-79
2021/08/02 01:47:57;;;;;;;10.35;5.15;;;16.90;99.90;;;;;;5024064;28;20033;-78
2021/08/02 01:54:08;;;;;;;10.30;4.13;;;16.90;99.90;;;;;;5039453;28;20049;-79
2021/08/02 02:00:38;;;;;;;5.82;3.80;;;16.80;99.90;;;;;;5042019;28;20048;-80
2021/08/02 02:04:17;;;;;;;6.70;3.95;;;16.80;99.90;;;;;;5041734;28;20022;-79
2021/08/02 02:07:17;;;;;;;6.05;4.53;;;16.90;99.90;;;;;;4994264;28;20029;-79
2021/08/02 02:09:43;;;;;;;5.68;4.00;;;16.80;99.90;;;;;;5019736;28;20033;-79
2021/08/02 02:12:14;;;;;;;5.72;4.32;;;16.80;99.90;;;;;;5021812;28;20045;-78
2021/08/02 02:15:07;;;;;;;6.90;5.38;;;16.80;99.90;;;;;;5020656;28;20052;-77
2021/08/02 02:17:53;;;;;;;8.85;4.20;;;16.90;99.90;;;;;;5022991;28;20021;-78
2021/08/02 02:20:54;;;;;;;8.02;4.03;;;16.80;99.90;;;;;;5017636;28;20026;-78
2021/08/02 02:23:21;;;;;;;9.25;4.20;;;16.80;99.90;;;;;;5017546;28;20038;-78
2021/08/02 02:25:51;;;;;;;9.50;3.53;;;16.80;99.90;;;;;;5015029;28;20025;-79
2021/08/02 02:28:36;;;;;;;7.15;3.47;;;16.80;99.90;;;;;;5003233;28;20029;-79
2021/08/02 02:31:11;;;;;;;5.03;3.70;;;16.80;99.90;;;;;;5019639;28;20033;-79
2021/08/02 02:33:38;;;;;;;3.85;3.45;;;16.80;99.90;;;;;;5035883;28;20054;-78
2021/08/02 02:36:05;;;;;;;4.63;3.35;;;16.90;99.90;;;;;;5037872;28;20021;-79
2021/08/02 02:38:34;;;;;;;5.07;2.88;;;17.00;99.90;;;;;;5021698;28;20085;-81
2021/08/02 02:41:06;;;;;;;4.88;3.25;;;17.00;99.90;;;;;;5022482;28;20038;-78
2021/08/02 02:43:37;;;;;;;5.43;2.75;;;17.00;99.90;;;;;;5005042;28;20026;-79
2021/08/02 03:41:41;;;;;;;2.58;1.65;;;16.40;99.90;;;;;;5001149;28;20030;-78
2021/08/02 03:44:41;;;;;;;2.80;1.98;;;16.40;99.90;;;;;;4973457;28;20035;-78
2021/08/02 03:47:31;;;;;;;3.22;1.80;;;16.40;99.90;;;;;;4988644;28;20034;-79
2021/08/02 03:49:57;;;;;;;5.90;1.58;;;16.50;99.90;;;;;;4976368;28;20030;-78
2021/08/02 03:52:23;;;;;;;8.52;1.90;;;16.50;99.90;;;;;;4993122;28;20024;-79
2021/08/02 03:54:50;;;;;;;8.70;1.33;;;16.60;99.90;;;;;;4993954;28;20033;-78
2021/08/02 03:57:20;;;;;;;2.00;1.40;;;16.60;99.90;;;;;;4993744;28;20054;-76
2021/08/02 03:59:51;;;;;;;8.10;2.10;;;16.70;99.90;;;;;;5027070;28;20107;-79
2021/08/02 04:02:18;;;;;;;2.85;1.67;;;16.70;99.90;;;;;;5019211;28;20033;-78
2021/08/02 04:04:45;;;;;;;5.68;1.50;;;16.90;99.90;;;;;;5018530;28;20038;-78
2021/08/02 04:07:12;;;;;;;5.10;1.88;;;16.90;99.90;;;;;;5017550;28;20033;-78
2021/08/02 04:09:38;;;;;;;2.88;1.55;;;17.00;99.90;;;;;;5018388;28;20026;-78
2021/08/02 04:12:08;;;;;;;2.70;1.17;;;17.10;99.90;;;;;;5017687;28;20053;-78
2021/08/02 04:14:38;;;;;;;3.97;1.33;;;17.10;99.90;;;;;;5034095;28;20024;-79
2021/08/02 04:17:04;;;;;;;2.85;1.25;;;17.20;99.90;;;;;;5030112;28;20057;-79
2021/08/02 04:19:31;;;;;;;3.00;1.30;;;17.20;99.90;;;;;;5032797;28;20034;-79
2021/08/02 04:21:59;;;;;;;2.78;1.33;;;17.40;99.90;;;;;;5000234;28;20066;-78
2021/08/02 04:24:26;;;;;;;2.70;1.08;;;17.40;99.80;;;;;;5010089;28;20033;-81
2021/08/02 04:26:53;;;;;;;3.70;1.60;;;17.60;99.80;;;;;;5002139;28;20034;-82
2021/08/02 04:29:20;;;;;;;2.83;1.15;;;17.70;99.80;;;;;;5016459;28;20061;-82
2021/08/02 04:31:46;;;;;;;4.20;1.52;;;17.70;99.50;;;;;;4993603;28;20472;-83
2021/08/02 04:34:12;;;;;;;1.52;1.10;;;17.80;99.20;;;;;;5012992;28;20125;-84
2021/08/02 04:36:39;;;;;;;4.30;0.80;;;17.80;99.10;;;;;;4990333;28;20026;-83
2021/08/02 04:39:04;;;;;;;2.15;0.80;;;17.90;98.90;;;;;;5006603;28;20030;-83
2021/08/02 04:41:31;;;;;;;5.40;1.50;;;17.90;98.90;;;;;;4989935;28;20433;-87
2021/08/02 04:43:57;;;;;;;2.72;0.55;;;18.00;98.80;;;;;;4989601;28;20498;-86
2021/08/02 04:46:22;;;;;;;1.63;0.82;;;18.20;98.70;;;;;;4989496;28;20049;-85
2021/08/02 04:48:48;;;;;;;2.35;1.05;;;18.30;98.30;;;;;;5006852;28;20076;-84
2021/08/02 04:51:14;;;;;;;1.00;0.60;;;18.40;98.00;;;;;;5006728;28;20030;-86
2021/08/02 04:53:39;;;;;;;4.38;0.90;;;18.40;97.60;;;;;;5004957;28;20644;-85
2021/08/02 04:56:05;;;;;;;2.88;0.77;;;18.50;97.40;;;;;;5007100;28;20026;-85
2021/08/02 04:58:31;;;;;;;2.05;1.00;;;18.40;97.30;;;;;;4989090;28;20061;-86
2021/08/02 05:00:57;;;;;;;0.75;0.40;;;18.40;97.50;;;;;;4988926;28;20075;-85
2021/08/02 05:03:22;;;;;;;1.08;0.60;;;18.40;97.70;;;;;;4988969;28;20038;-80
2021/08/02 05:05:48;;;;;;;1.50;0.68;;;18.40;97.50;;;;;;5006544;28;20022;-81
2021/08/02 05:08:14;;;;;;;3.20;0.50;;;18.50;97.50;;;;;;5006559;28;20347;-89
2021/08/02 05:10:39;;;;;;;0.68;0.30;;;18.50;97.40;;;;;;4989345;28;20483;-87
2021/08/02 05:13:05;;;;;;;3.17;0.40;;;18.50;97.20;;;;;;4988859;28;20044;-87
2021/08/02 05:15:31;;;;;;;4.32;0.50;;;18.60;97.10;;;;;;5006891;28;20122;-86
2021/08/02 05:17:57;;;;;;;1.05;0.40;;;18.60;97.10;;;;;;5006411;28;20630;-83
2021/08/02 05:20:23;;;;;;;1.13;0.40;;;18.60;96.80;;;;;;4989468;28;20041;-83
2021/08/02 05:22:50;;;;;;;1.85;0.57;;;18.60;96.80;;;;;;4989384;28;20390;-87
2021/08/02 05:25:16;;;;;;;5.18;0.30;;;18.60;96.90;;;;;;5006489;28;20038;-85
2021/08/02 05:27:48;;;;;;;2.58;0.32;;;18.70;97.00;;;;;;4988831;28;20069;-87
2021/08/02 05:30:15;;;;;;;5.82;0.30;;;18.80;96.90;;;;;;5006968;28;20065;-85
2021/08/02 05:32:40;;;;;;;3.42;0.30;;;18.90;96.40;;;;;;4988933;28;20030;-84
2021/08/02 05:35:06;;;;;;;1.48;0.30;;;19.10;96.00;;;;;;4988923;28;20046;-88
2021/08/02 05:37:32;;;;;;;0.75;0.32;;;19.20;95.70;;;;;;4988793;28;20573;-87
2021/08/02 05:39:58;;;;;;;3.78;0.38;;;19.20;95.50;;;;;;4988747;28;20037;-89
2021/08/02 05:42:23;;;;;;;1.73;0.30;;;19.40;95.20;;;;;;4989175;28;20026;-88
2021/08/02 05:44:49;;;;;;;4.63;0.30;;;19.50;94.30;;;;;;4989124;28;20030;-87
2021/08/02 05:47:15;;;;;;;1.05;0.20;;;19.70;93.60;;;;;;5006290;28;20131;-86
2021/08/02 05:49:40;;;;;;;1.98;0.40;;;19.90;92.60;;;;;;5006557;28;20034;-86
2021/08/02 05:52:06;;;;;;;1.27;0.40;;;20.00;92.30;;;;;;4988555;28;20026;-85
2021/08/02 05:54:32;;;;;;;0.70;0.30;;;20.10;91.80;;;;;;4988710;28;20034;-87
2021/08/02 05:56:58;;;;;;;2.05;0.30;;;20.10;91.80;;;;;;5006702;28;20424;-88
2021/08/02 05:59:23;;;;;;;0.75;0.35;;;20.10;92.10;;;;;;4988446;28;20785;-87
2021/08/02 06:01:49;;;;;;;4.50;0.38;;;20.40;91.80;;;;;;4988885;28;20033;-86
2021/08/02 06:04:15;;;;;;;2.70;0.65;;;20.90;90.50;;;;;;4988402;28;20030;-83
2021/08/02 06:06:42;;;;;;;5.72;0.35;;;21.60;88.50;;;;;;4988806;28;20021;-82
2021/08/02 06:09:10;;;;;;;9.35;0.50;;;22.50;84.30;;;;;;4988439;28;20037;-82
2021/08/02 06:11:37;;;;;;;1.35;0.40;;;23.20;80.00;;;;;;5005969;28;20057;-82
2021/08/02 06:14:02;;;;;;;1.10;0.30;;;23.90;76.40;;;;;;4988759;28;20089;-80
2021/08/02 06:16:28;;;;;;;4.88;0.30;;;24.60;72.70;;;;;;4992228;28;20446;-80
2021/08/02 06:18:53;;;;;;;6.32;0.40;;;25.30;69.20;;;;;;4991594;28;20454;-80
2021/08/02 06:21:19;;;;;;;0.63;0.63;;;26.10;66.30;;;;;;4991560;28;20068;-80
2021/08/02 06:23:45;;;;;;;0.57;0.30;;;27.30;60.80;;;;;;4991753;28;20088;-81
2021/08/02 06:26:10;;;;;;;0.30;0.30;;;28.00;56.90;;;;;;5009476;28;20084;-81
2021/08/02 06:28:36;;;;;;;4.72;0.60;;;28.90;54.70;;;;;;4991896;28;20048;-80
2021/08/02 06:31:02;;;;;;;5.45;0.40;;;29.80;50.50;;;;;;4991305;28;20045;-81
2021/08/02 06:33:29;;;;;;;2.72;0.60;;;30.50;47.00;;;;;;4991791;28;20173;-81
2021/08/02 06:35:55;;;;;;;1.50;0.30;;;30.70;45.90;;;;;;5009325;28;20033;-81
2021/08/02 06:38:20;;;;;;;1.15;0.30;;;30.70;45.40;;;;;;4990842;28;20038;-81
2021/08/02 06:40:46;;;;;;;0.98;0.30;;;31.20;44.30;;;;;;4991588;28;20061;-83
2021/08/02 06:43:15;;;;;;;1.33;0.55;;;31.50;44.30;;;;;;5008764;28;20452;-84
2021/08/02 06:45:41;;;;;;;0.30;0.30;;;31.30;44.80;;;;;;4991496;28;20184;-84
2021/08/02 06:48:07;;;;;;;1.50;0.40;;;31.80;43.80;;;;;;5009037;28;20034;-84
2021/08/02 06:50:33;;;;;;;6.25;0.47;;;32.20;42.40;;;;;;5008537;28;20041;-84
2021/08/02 06:52:59;;;;;;;0.88;0.30;;;32.40;40.90;;;;;;4990795;28;20286;-83
2021/08/02 06:55:24;;;;;;;3.30;0.43;;;31.90;41.80;;;;;;4990915;28;20118;-83
2021/08/02 06:57:50;;;;;;;2.08;0.40;;;31.80;42.30;;;;;;4991299;28;20029;-82
2021/08/02 07:00:16;;;;;;;1.60;0.40;;;31.80;42.00;;;;;;5008832;28;20038;-83
2021/08/02 07:02:43;;;;;;;0.73;0.32;;;31.70;42.40;;;;;;5008367;28;20038;-83
2021/08/02 07:05:09;;;;;;;1.38;0.40;;;31.70;41.40;;;;;;4990754;28;20116;-83
2021/08/02 07:07:35;;;;;;;0.35;0.30;;;31.60;42.20;;;;;;4990519;28;20030;-84
2021/08/02 07:10:01;;;;;;;0.40;0.40;;;31.90;42.40;;;;;;4990988;28;20030;-83
2021/08/02 07:12:26;;;;;;;4.03;1.13;;;31.80;42.20;;;;;;5008557;28;20084;-82
2021/08/02 07:14:52;;;;;;;1.52;0.40;;;31.80;42.20;;;;;;5007638;28;20026;-84
2021/08/02 07:17:17;;;;;;;1.80;0.40;;;31.80;41.80;;;;;;5000748;28;20430;-84
2021/08/02 07:19:43;;;;;;;1.00;0.40;;;31.90;41.90;;;;;;5004543;28;20057;-82
2021/08/02 07:22:09;;;;;;;2.35;0.40;;;32.00;41.70;;;;;;4990277;28;20541;-83
2021/08/02 07:24:34;;;;;;;1.27;0.35;;;31.90;42.10;;;;;;5006789;28;20026;-84
2021/08/02 07:27:00;;;;;;;1.02;0.30;;;32.00;41.90;;;;;;5007181;28;20041;-83
2021/08/02 07:29:25;;;;;;;1.15;0.52;;;31.80;43.20;;;;;;5008241;28;20026;-84
2021/08/02 07:31:51;;;;;;;1.73;0.60;;;32.00;43.00;;;;;;4990517;28;20044;-83
2021/08/02 07:34:17;;;;;;;1.17;0.40;;;31.90;42.10;;;;;;5007588;28;20042;-83
2021/08/02 07:36:42;;;;;;;0.75;0.40;;;32.20;41.00;;;;;;4989658;28;20032;-82
2021/08/02 07:39:08;;;;;;;1.50;0.60;;;32.30;40.50;;;;;;5007502;28;20059;-84
2021/08/02 07:41:34;;;;;;;3.20;0.77;;;32.00;40.80;;;;;;5006328;28;20120;-83
2021/08/02 07:44:00;;;;;;;3.65;0.50;;;32.00;40.40;;;;;;4990497;28;20088;-83
2021/08/02 07:46:26;;;;;;;0.70;0.40;;;31.90;41.30;;;;;;4990183;28;20076;-83
2021/08/02 07:48:52;;;;;;;0.90;0.52;;;32.30;41.00;;;;;;4990497;28;20084;-83
2021/08/02 07:51:21;;;;;;;2.03;0.40;;;32.40;41.00;;;;;;5007330;28;20483;-84
2021/08/02 07:53:47;;;;;;;1.58;0.40;;;32.40;40.80;;;;;;5007279;28;20073;-83
2021/08/02 07:56:13;;;;;;;0.70;0.40;;;32.30;40.60;;;;;;4989890;28;20064;-82
2021/08/02 07:58:38;;;;;;;1.60;0.50;;;32.40;41.40;;;;;;4989789;28;20054;-83
2021/08/02 08:01:04;;;;;;;0.40;0.40;;;32.70;40.00;;;;;;5007536;28;20479;-83
2021/08/02 08:03:30;;;;;;;0.60;0.40;;;32.70;39.20;;;;;;4989632;28;20155;-83
2021/08/02 08:05:56;;;;;;;3.92;0.70;;;32.80;39.40;;;;;;5007461;28;20025;-82
2021/08/02 08:08:22;;;;;;;1.02;0.40;;;32.90;38.50;;;;;;5007199;28;20372;-83
2021/08/02 08:10:48;;;;;;;0.57;0.40;;;32.90;37.50;;;;;;4989374;28;20033;-82
2021/08/02 08:13:14;;;;;;;2.00;0.50;;;32.80;39.00;;;;;;4989594;28;20033;-82
2021/08/02 08:15:40;;;;;;;0.82;0.50;;;32.90;39.30;;;;;;5007118;28;20029;-83
2021/08/02 08:18:05;;;;;;;0.93;0.40;;;32.90;39.00;;;;;;4989547;28;20056;-82
2021/08/02 08:20:32;;;;;;;3.90;0.60;;;32.90;38.70;;;;;;4989759;28;20033;-82
2021/08/02 08:22:57;;;;;;;1.40;0.40;;;33.30;37.30;;;;;;5006371;28;20091;-82
2021/08/02 08:25:24;;;;;;;1.40;0.40;;;33.20;37.20;;;;;;5007289;28;20874;-82
2021/08/02 08:27:50;;;;;;;1.50;0.40;;;33.30;37.20;;;;;;4989751;28;20026;-84
2021/08/02 08:30:18;;;;;;;1.52;0.52;;;32.90;36.10;;;;;;4989336;28;20168;-82
2021/08/02 08:32:43;;;;;;;1.23;0.50;;;33.10;37.40;;;;;;5006921;28;20415;-83
2021/08/02 08:35:10;;;;;;;5.53;0.93;;;32.80;36.10;;;;;;5006492;28;20037;-83
2021/08/02 08:37:37;;;;;;;2.28;0.50;;;32.80;37.30;;;;;;5005966;28;20410;-83
2021/08/02 08:40:04;;;;;;;0.95;0.57;;;32.70;37.00;;;;;;4989460;28;20030;-82
2021/08/02 08:42:30;;;;;;;2.83;0.47;;;32.80;37.80;;;;;;4989350;28;20030;-82
2021/08/02 08:44:56;;;;;;;0.77;0.63;;;33.30;37.50;;;;;;4988643;28;20752;-82
2021/08/02 08:47:21;;;;;;;1.15;0.50;;;33.50;36.50;;;;;;4989189;28;20053;-83
2021/08/02 08:49:47;;;;;;;2.15;0.75;;;33.60;36.80;;;;;;4989146;28;20060;-82
2021/08/02 08:52:14;;;;;;;4.43;0.50;;;33.80;37.00;;;;;;5006254;28;20053;-82
2021/08/02 08:54:42;;;;;;;0.85;0.52;;;33.70;37.40;;;;;;5006428;28;20059;-81
2021/08/02 08:57:11;;;;;;;1.38;0.50;;;33.70;36.20;;;;;;4988601;28;20026;-81
2021/08/02 08:59:53;;;;;;;1.27;0.50;;;33.80;36.30;;;;;;5005989;28;20060;-82
2021/08/02 09:02:29;;;;;;;0.90;0.50;;;33.90;34.20;;;;;;5006696;28;20426;-83
2021/08/02 09:05:00;;;;;;;1.00;0.50;;;33.80;36.50;;;;;;5006315;28;20053;-82
2021/08/02 09:07:33;;;;;;;0.82;0.52;;;34.00;35.60;;;;;;4988369;28;20432;-81
2021/08/02 09:09:59;;;;;;;0.82;0.40;;;33.90;34.80;;;;;;4989110;28;20026;-81
2021/08/02 09:12:25;;;;;;;1.80;0.60;;;33.90;35.60;;;;;;4988685;28;20037;-81
2021/08/02 09:14:53;;;;;;;1.40;0.50;;;33.90;36.30;;;;;;5005931;28;20030;-81
2021/08/02 09:17:29;;;;;;;1.13;0.57;;;33.90;36.20;;;;;;4989124;28;20125;-81
2021/08/02 09:19:55;;;;;;;3.17;0.70;;;33.90;35.90;;;;;;4988418;28;20034;-82
2021/08/02 09:22:35;;;;;;;1.52;0.57;;;33.90;34.40;;;;;;4988093;28;20033;-80
2021/08/02 09:25:15;;;;;;;1.45;0.40;;;34.20;34.90;;;;;;4988532;28;20033;-82
2021/08/02 09:27:43;;;;;;;0.60;0.50;;;34.20;35.00;;;;;;4988632;28;20030;-80
2021/08/02 09:30:16;;;;;;;2.38;0.60;;;34.30;34.80;;;;;;4985445;28;20108;-81
2021/08/02 09:32:48;;;;;;;1.70;0.40;;;34.40;34.50;;;;;;4978755;28;20054;-83
2021/08/02 09:35:25;;;;;;;3.80;0.93;;;34.30;33.50;;;;;;4986325;28;20034;-82
2021/08/02 09:37:59;;;;;;;0.50;0.40;;;34.10;34.70;;;;;;4969218;28;20422;-81
2021/08/02 09:40:26;;;;;;;1.95;0.60;;;34.10;35.40;;;;;;4986447;28;20054;-81
2021/08/02 09:42:56;;;;;;;0.93;0.60;;;34.30;35.00;;;;;;4997049;28;20271;-82
2021/08/02 09:45:23;;;;;;;4.13;1.25;;;34.30;35.10;;;;;;4987965;28;20580;-82
2021/08/02 09:47:50;;;;;;;0.90;0.50;;;34.40;35.10;;;;;;5004747;28;20030;-81
2021/08/02 09:50:26;;;;;;;0.70;0.50;;;34.50;35.10;;;;;;5009430;28;20084;-81
2021/08/02 09:52:52;;;;;;;1.48;0.55;;;34.60;34.80;;;;;;5009827;28;20041;-82
2021/08/02 09:55:19;;;;;;;1.02;0.50;;;34.70;34.90;;;;;;5008448;28;20042;-81
2021/08/02 09:57:45;;;;;;;8.75;0.70;;;34.80;33.90;;;;;;5007999;28;20034;-82
2021/08/02 10:00:12;;;;;;;6.40;0.60;;;34.30;33.60;;;;;;5009646;28;20241;-81
2021/08/02 10:02:38;;;;;;;3.03;0.60;;;33.90;34.10;;;;;;5008344;28;20048;-80
2021/08/02 10:05:05;;;;;;;0.85;0.47;;;33.70;35.00;;;;;;5009266;28;20492;-81
2021/08/02 10:07:31;;;;;;;0.80;0.50;;;33.80;35.60;;;;;;5009848;28;20072;-81
2021/08/02 10:09:57;;;;;;;0.90;0.50;;;33.80;35.50;;;;;;5009172;28;20038;-82
2021/08/02 10:12:22;;;;;;;2.63;0.60;;;33.80;35.20;;;;;;5009472;28;20030;-82
2021/08/02 10:14:55;;;;;;;3.20;0.75;;;33.40;36.00;;;;;;4991370;28;20045;-81
2021/08/02 10:17:21;;;;;;;2.38;0.50;;;33.10;36.60;;;;;;5009377;28;20032;-81
2021/08/02 10:19:54;;;;;;;0.52;0.40;;;32.40;37.40;;;;;;5009296;28;20314;-81
2021/08/02 10:22:19;;;;;;;0.60;0.40;;;31.80;37.00;;;;;;5007975;28;20026;-81
2021/08/02 10:24:52;;;;;;;4.28;0.60;;;31.10;37.70;;;;;;5007806;28;20022;-82
2021/08/02 10:27:30;;;;;;;1.23;0.60;;;30.50;39.10;;;;;;5007903;28;20034;-80
2021/08/02 10:29:56;;;;;;;0.45;0.40;;;30.00;41.40;;;;;;5007737;28;20030;-81
2021/08/02 10:32:26;;;;;;;2.38;0.60;;;29.60;40.40;;;;;;5008000;28;20414;-81
2021/08/02 10:34:52;;;;;;;0.80;0.45;;;29.40;41.70;;;;;;4991098;28;20041;-81
2021/08/02 10:37:35;;;;;;;1.45;0.63;;;29.20;42.70;;;;;;5006883;28;20045;-79
2021/08/02 10:40:06;;;;;;;0.57;0.43;;;29.20;44.60;;;;;;4989254;28;20037;-80
2021/08/02 10:42:32;;;;;;;2.45;0.70;;;29.20;45.30;;;;;;4972186;28;20502;-79
2021/08/02 10:44:59;;;;;;;1.15;0.45;;;29.20;45.70;;;;;;4971908;28;20097;-79
2021/08/02 10:47:37;;;;;;;7.88;0.60;;;29.20;44.50;;;;;;4971972;28;20030;-81
2021/08/02 10:50:03;;;;;;;1.30;0.50;;;29.20;43.80;;;;;;4988698;28;20074;-80
2021/08/02 10:52:30;;;;;;;1.48;0.55;;;29.00;43.10;;;;;;4972059;28;20022;-79
2021/08/02 10:54:56;;;;;;;1.52;0.60;;;29.00;45.30;;;;;;4971345;28;20042;-79
2021/08/02 10:57:22;;;;;;;1.05;0.52;;;28.80;45.70;;;;;;4971468;28;20482;-80
2021/08/02 10:59:48;;;;;;;0.90;0.50;;;28.80;45.40;;;;;;4988584;28;20050;-79
2021/08/02 11:02:14;;;;;;;3.05;0.88;;;28.70;45.60;;;;;;4971349;28;20038;-80
2021/08/02 11:04:41;;;;;;;0.77;0.52;;;28.60;45.90;;;;;;4988961;28;20439;-79
2021/08/02 11:07:08;;;;;;;4.03;0.75;;;28.60;43.80;;;;;;4971587;28;20073;-80
2021/08/02 11:09:36;;;;;;;3.42;0.60;;;28.50;44.00;;;;;;4988855;28;20027;-80
2021/08/02 11:12:16;;;;;;;1.92;0.60;;;28.40;45.60;;;;;;4988790;28;20038;-80
2021/08/02 11:14:53;;;;;;;2.03;0.60;;;28.30;45.20;;;;;;4971507;28;20470;-81
2021/08/02 11:17:21;;;;;;;2.97;0.50;;;28.30;45.10;;;;;;4989057;28;20030;-81
2021/08/02 11:19:46;;;;;;;0.95;0.45;;;28.20;45.10;;;;;;4988601;28;20495;-80
2021/08/02 11:22:13;;;;;;;1.67;0.63;;;28.30;46.80;;;;;;4988586;28;20026;-79
2021/08/02 11:25:01;;;;;;;3.17;0.70;;;28.40;45.70;;;;;;4988774;28;20101;-79
2021/08/02 11:27:26;;;;;;;0.95;0.57;;;28.60;44.80;;;;;;4971798;28;20030;-80
2021/08/02 11:29:54;;;;;;;1.35;0.77;;;28.60;44.50;;;;;;4988539;28;20049;-79
2021/08/02 11:32:21;;;;;;;3.42;0.47;;;28.70;45.10;;;;;;4971193;28;20840;-79
2021/08/02 11:34:57;;;;;;;2.53;0.68;;;28.80;44.70;;;;;;4988390;28;20077;-80
2021/08/02 11:37:25;;;;;;;3.03;0.65;;;28.50;43.60;;;;;;4987812;28;20559;-79
2021/08/02 11:39:59;;;;;;;3.00;0.55;;;28.50;44.00;;;;;;4988535;28;20038;-80
2021/08/02 11:42:24;;;;;;;0.80;0.60;;;28.60;44.70;;;;;;4970525;28;20029;-80
2021/08/02 11:44:52;;;;;;;3.17;0.70;;;28.60;44.80;;;;;;4970327;28;20026;-77
2021/08/02 11:47:25;;;;;;;0.68;0.52;;;28.40;44.70;;;;;;4988410;28;20103;-79
2021/08/02 11:49:53;;;;;;;1.25;0.82;;;28.40;45.50;;;;;;4970284;28;20060;-80
2021/08/02 11:52:20;;;;;;;1.50;0.70;;;28.20;45.50;;;;;;4987235;28;20026;-79
2021/08/02 11:55:07;;;;;;;1.63;0.55;;;28.00;45.20;;;;;;4988033;28;20038;-80
2021/08/02 11:57:33;;;;;;;0.80;0.52;;;28.10;46.40;;;;;;4970796;28;20073;-79
2021/08/02 12:00:01;;;;;;;2.95;0.68;;;28.20;45.50;;;;;;4970059;28;20057;-79
2021/08/02 12:02:37;;;;;;;2.53;0.50;;;28.20;45.00;;;;;;4970634;28;20031;-80
2021/08/02 12:05:09;;;;;;;4.15;0.60;;;28.30;45.80;;;;;;4969750;28;20026;-80
2021/08/02 12:07:35;;;;;;;0.80;0.47;;;28.50;45.80;;;;;;4988464;28;20034;-79
2021/08/02 12:10:20;;;;;;;1.08;0.52;;;28.60;44.50;;;;;;4987527;28;20407;-80
2021/08/02 12:13:10;;;;;;;1.00;0.50;;;28.80;43.20;;;;;;4969570;28;20026;-79
2021/08/02 12:15:36;;;;;;;2.80;0.65;;;28.70;42.90;;;;;;4970646;28;20065;-81
2021/08/02 12:18:03;;;;;;;1.85;0.50;;;28.50;43.80;;;;;;4970356;28;20527;-79
2021/08/02 12:20:37;;;;;;;3.08;0.52;;;28.40;44.00;;;;;;4969917;28;20030;-79
2021/08/02 12:23:04;;;;;;;1.65;0.57;;;28.40;43.80;;;;;;4987369;28;20038;-80
2021/08/02 12:25:46;;;;;;;2.20;0.80;;;28.30;44.90;;;;;;4987678;28;20481;-80
2021/08/02 12:28:13;;;;;;;1.73;0.50;;;28.20;45.50;;;;;;4987525;28;20030;-81
2021/08/02 12:30:40;;;;;;;1.20;0.60;;;28.10;46.60;;;;;;4987277;28;20031;-79
2021/08/02 12:33:08;;;;;;;2.33;0.60;;;28.10;47.10;;;;;;4970082;28;20065;-78
2021/08/02 12:35:34;;;;;;;1.65;0.50;;;28.10;47.20;;;;;;4986913;28;20038;-78
2021/08/02 12:38:01;;;;;;;0.90;0.50;;;28.30;46.90;;;;;;4970098;28;20083;-79
2021/08/02 12:40:27;;;;;;;4.13;0.52;;;28.50;46.40;;;;;;4969477;28;20034;-79
2021/08/02 12:42:53;;;;;;;1.70;0.43;;;28.70;45.10;;;;;;4987729;28;20042;-79
2021/08/02 12:45:19;;;;;;;3.03;0.80;;;28.70;45.00;;;;;;4969233;28;20034;-78
2021/08/02 12:47:49;;;;;;;1.83;0.68;;;28.90;45.60;;;;;;4987164;28;20033;-80
2021/08/02 12:50:16;;;;;;;1.90;0.60;;;29.10;45.80;;;;;;4969499;28;20030;-79
2021/08/02 12:52:42;;;;;;;0.77;0.60;;;29.00;44.60;;;;;;4986906;28;20023;-81
2021/08/02 12:55:09;;;;;;;4.60;0.60;;;28.80;45.00;;;;;;4970005;28;20030;-80
2021/08/02 12:57:38;;;;;;;6.18;0.50;;;28.90;45.20;;;;;;4969866;28;20073;-80
2021/08/02 13:00:06;;;;;;;4.90;0.50;;;29.00;45.10;;;;;;4969213;28;20255;-80
2021/08/02 13:02:32;;;;;;;1.20;0.60;;;29.20;44.20;;;;;;4969646;28;20027;-79
2021/08/02 13:04:59;;;;;;;0.98;0.40;;;29.20;44.40;;;;;;4968983;28;20530;-79
2021/08/02 13:07:26;;;;;;;2.72;0.40;;;29.20;43.70;;;;;;4969625;28;20038;-80
2021/08/02 13:09:53;;;;;;;0.80;0.50;;;29.20;43.80;;;;;;4987015;28;20022;-81
2021/08/02 13:12:19;;;;;;;1.90;0.60;;;29.20;44.20;;;;;;4986959;28;20033;-79
2021/08/02 13:14:46;;;;;;;0.70;0.47;;;28.90;43.90;;;;;;4969550;28;20514;-80
2021/08/02 13:17:11;;;;;;;1.17;0.43;;;28.70;44.20;;;;;;4969162;28;20394;-80
2021/08/02 13:19:38;;;;;;;4.47;0.50;;;28.50;44.40;;;;;;4969164;28;20549;-80
2021/08/02 13:22:08;;;;;;;1.00;0.50;;;28.50;44.50;;;;;;4969504;28;20026;-79
2021/08/02 13:27:19;;;;;;;0.65;0.50;;;28.60;44.80;;;;;;4990835;28;20084;-80
2021/08/02 13:29:46;;;;;;;1.00;0.55;;;28.80;44.80;;;;;;4973616;28;20034;-80
2021/08/02 13:32:13;;;;;;;3.13;0.50;;;29.00;44.00;;;;;;4973384;28;20062;-80
2021/08/02 13:34:45;;;;;;;0.80;0.55;;;29.10;43.90;;;;;;4972874;28;20045;-80
2021/08/02 13:37:11;;;;;;;1.30;0.50;;;29.20;42.90;;;;;;4973091;28;20030;-80
2021/08/02 13:39:37;;;;;;;2.22;0.52;;;29.30;43.60;;;;;;4990601;28;20038;-78
2021/08/02 13:42:05;;;;;;;1.08;0.50;;;29.30;42.60;;;;;;4973179;28;20026;-80
2021/08/02 13:44:32;;;;;;;4.43;0.65;;;29.30;42.70;;;;;;4990200;28;20109;-80
2021/08/02 13:46:58;;;;;;;1.05;0.40;;;29.20;43.60;;;;;;4972933;28;20261;-80
2021/08/02 13:49:25;;;;;;;1.77;0.55;;;29.20;43.70;;;;;;4990242;28;20061;-79
2021/08/02 13:51:50;;;;;;;1.42;0.68;;;29.20;43.50;;;;;;4990486;28;20491;-80
2021/08/02 13:54:17;;;;;;;0.98;0.40;;;29.30;44.20;;;;;;4973120;28;20069;-80
2021/08/02 13:56:42;;;;;;;1.60;0.70;;;29.10;43.70;;;;;;4972726;28;20026;-80
2021/08/02 13:59:08;;;;;;;1.00;0.52;;;28.90;44.30;;;;;;4972556;28;20062;-81
2021/08/02 14:01:34;;;;;;;3.42;0.60;;;28.60;45.10;;;;;;4973000;28;20495;-80
2021/08/02 14:04:00;;;;;;;4.60;1.15;;;28.40;45.50;;;;;;4972206;28;20034;-81
2021/08/02 14:06:28;;;;;;;2.58;0.60;;;28.00;46.40;;;;;;4990354;28;20400;-81
2021/08/02 14:08:54;;;;;;;1.10;0.50;;;27.80;47.10;;;;;;4989737;28;20058;-78
2021/08/02 14:11:22;;;;;;;1.02;0.60;;;27.70;47.30;;;;;;4989855;28;20057;-81
2021/08/02 14:13:53;;;;;;;2.47;0.50;;;27.70;47.40;;;;;;4989947;28;20042;-80
2021/08/02 14:16:22;;;;;;;2.65;0.80;;;27.70;48.30;;;;;;4972581;28;20033;-81